Cape Flattery, Washington
Current Conditions -  °F | °C
As of 1:58 AM on Saturday 25 Oct 2014 (Local Time) from KUIL Reporting Station
Moderate Rain Moderate Rain  
Wind Chill: 50°   Ceiling: 2800
Heat Index: 50°   Visibility: 2.5mi
Dew Point: 48°   Wind: 8mph
Humidity: 93%   Direction: 50°NE
Pressure: 29.58"   Gusts: NA
Location:  48.3685°N, 124.623°W
Report Text: KUIL 250858Z AUTO 05007KT 2 1/2SM RA BR BKN028 OVC034 10/09 A2958 RMK AO2 P0001 T01000089
Loading
Personal Weather Stations






























Interactive Weather Map
Tropical Storm Tracking
New forecast layout! Learn more

10-Day Weather Forecast

Advertisements
Track Severe Weather on mobile